Time;durP1;ratioP1;P1;durP2;ratioP2;P2;SDS_P1;SDS_P2;PMS_P1;PMS_P2;Temp;Humidity;BMP_temperature;BMP_pressure;BME280_temperature;BME280_humidity;BME280_pressure;Samples;Min_cycle;Max_cycle;Signal;HPM_P1;HPM_P2
2021/01/13 00:01:05;;;;;;;11.75;5.87;;;;;;;-0.04;93.17;99414.08;1704830;83;21616;-76
2021/01/13 00:03:31;;;;;;;10.35;6.08;;;;;;;-0.04;93.16;99408.37;1714289;83;21228;-75
2021/01/13 00:05:58;;;;;;;10.95;5.33;;;;;;;-0.03;93.16;99411.31;1713266;83;21141;-76
2021/01/13 00:08:24;;;;;;;11.15;7.47;;;;;;;-0.02;93.17;99409.53;1702942;83;21318;-75
2021/01/13 00:10:51;;;;;;;10.65;7.95;;;;;;;-0.02;93.17;99414.77;1714904;83;21200;-76
2021/01/13 00:13:17;;;;;;;9.08;6.12;;;;;;;-0.01;93.17;99421.69;1715998;83;21195;-76
2021/01/13 00:15:43;;;;;;;8.78;4.60;;;;;;;0.01;93.18;99434.17;1710902;83;21603;-76
2021/01/13 00:18:09;;;;;;;6.42;4.30;;;;;;;0.01;93.18;99432.86;1691701;83;21172;-77
2021/01/13 00:20:36;;;;;;;6.47;3.33;;;;;;;0.02;93.18;99443.70;1678673;83;22153;-77
2021/01/13 00:23:02;;;;;;;7.75;4.00;;;;;;;0.03;93.18;99451.92;1719092;82;21181;-77
2021/01/13 00:25:29;;;;;;;7.35;4.08;;;;;;;0.03;93.17;99444.06;1719365;83;21207;-77
2021/01/13 00:27:55;;;;;;;5.62;3.10;;;;;;;0.04;93.18;99450.95;1703710;83;21176;-76
2021/01/13 00:30:21;;;;;;;6.92;3.30;;;;;;;0.06;93.20;99457.38;1690754;83;21630;-77
2021/01/13 00:32:48;;;;;;;5.37;3.12;;;;;;;0.05;93.17;99459.17;1691563;83;21209;-77
2021/01/13 00:35:15;;;;;;;6.12;3.65;;;;;;;0.07;93.18;99462.48;1698572;82;21192;-77
2021/01/13 00:37:41;;;;;;;7.08;3.90;;;;;;;0.08;93.17;99460.22;1690478;84;21181;-77
2021/01/13 00:40:09;;;;;;;6.60;3.80;;;;;;;0.08;93.19;99468.08;1692214;83;21196;-77
2021/01/13 00:42:48;;;;;;;7.30;3.37;;;;;;;0.06;93.18;99472.63;1690474;83;21693;-76
2021/01/13 00:45:16;;;;;;;6.10;4.58;;;;;;;0.06;93.19;99480.50;1690704;84;22224;-76
2021/01/13 00:47:42;;;;;;;5.97;4.00;;;;;;;0.05;93.17;99484.06;1708783;83;21207;-76
2021/01/13 00:50:11;;;;;;;7.15;3.72;;;;;;;0.06;93.20;99488.36;1716901;83;21216;-77
2021/01/13 00:52:37;;;;;;;6.40;3.40;;;;;;;0.04;93.18;99492.88;1706194;83;21196;-77
2021/01/13 00:55:04;;;;;;;5.42;2.83;;;;;;;0.04;93.19;99500.73;1690580;83;21140;-77
2021/01/13 00:57:31;;;;;;;5.85;3.00;;;;;;;0.03;93.17;99508.27;1709127;83;21207;-77
2021/01/13 00:59:58;;;;;;;5.47;2.72;;;;;;;0.04;93.17;99511.22;1719065;83;21644;-76
2021/01/13 01:02:24;;;;;;;5.87;3.25;;;;;;;0.04;93.16;99519.09;1719465;82;21153;-77
2021/01/13 01:04:50;;;;;;;6.28;3.00;;;;;;;0.05;93.16;99526.00;1719117;83;21652;-77
2021/01/13 01:07:16;;;;;;;5.92;3.37;;;;;;;0.05;93.16;99531.24;1718566;83;21200;-77
2021/01/13 01:09:43;;;;;;;12.13;7.83;;;;;;;0.04;93.17;99543.98;1699152;83;21252;-76
2021/01/13 01:12:09;;;;;;;11.97;4.37;;;;;;;0.02;93.17;99546.38;1690423;84;21196;-77
2021/01/13 01:14:36;;;;;;;8.23;3.20;;;;;;;0.03;93.16;99551.98;1690006;84;21685;-76
2021/01/13 01:17:10;;;;;;;10.35;3.90;;;;;;;0.02;93.17;99557.70;1690590;84;21192;-76
2021/01/13 01:19:38;;;;;;;9.35;3.75;;;;;;;0.01;93.18;99563.89;1690431;84;21188;-76
2021/01/13 01:22:05;;;;;;;12.33;4.33;;;;;;;-0.01;93.16;99565.81;1690353;84;21285;-76
2021/01/13 01:24:31;;;;;;;4.17;2.50;;;;;;;-0.02;93.17;99563.67;1690853;84;21145;-76
2021/01/13 01:26:58;;;;;;;6.90;2.98;;;;;;;-0.04;93.16;99561.66;1694453;83;21165;-76
2021/01/13 01:29:24;;;;;;;7.92;2.33;;;;;;;-0.02;93.14;99572.84;1693862;82;21149;-76
2021/01/13 01:31:51;;;;;;;7.12;2.17;;;;;;;-0.03;93.15;99575.58;1711223;83;21629;-76
2021/01/13 01:34:17;;;;;;;5.25;2.02;;;;;;;-0.04;93.13;99576.55;1714257;83;22033;-76
2021/01/13 01:36:44;;;;;;;7.70;2.42;;;;;;;-0.05;93.13;99568.33;1719692;83;21176;-76
2021/01/13 01:39:10;;;;;;;7.08;1.90;;;;;;;-0.05;93.13;99576.19;1719631;83;21617;-76
2021/01/13 01:41:36;;;;;;;12.40;4.55;;;;;;;-0.06;93.13;99577.13;1719659;83;21492;-76
2021/01/13 01:44:03;;;;;;;9.80;6.03;;;;;;;-0.07;93.12;99572.88;1719547;82;21592;-76
2021/01/13 01:46:30;;;;;;;6.67;2.92;;;;;;;-0.11;93.12;99584.08;1719808;83;21215;-76
2021/01/13 01:48:59;;;;;;;4.67;2.87;;;;;;;-0.14;93.10;99575.63;1717594;83;21189;-76
2021/01/13 01:51:28;;;;;;;4.15;2.37;;;;;;;-0.18;93.11;99576.82;1719805;83;21163;-76
2021/01/13 01:54:20;;;;;;;3.92;1.92;;;;;;;-0.22;93.08;99576.70;1718593;82;22197;-77
2021/01/13 01:56:46;;;;;;;4.35;2.20;;;;;;;-0.28;93.09;99581.13;1671837;84;21629;-76
2021/01/13 01:59:15;;;;;;;7.60;3.60;;;;;;;-0.32;93.06;99577.08;1703102;84;21153;-76
2021/01/13 02:01:46;;;;;;;4.95;3.15;;;;;;;-0.34;93.06;99577.66;1701509;82;21168;-76
2021/01/13 02:04:18;;;;;;;3.33;2.47;;;;;;;-0.36;93.04;99588.75;1702726;84;21207;-76
2021/01/13 02:07:19;;;;;;;7.45;3.10;;;;;;;-0.38;93.04;99583.63;1709070;83;21583;-76
2021/01/13 02:09:46;;;;;;;6.55;2.55;;;;;;;-0.38;93.00;99585.40;1716155;83;21206;-76
2021/01/13 02:12:13;;;;;;;7.85;3.30;;;;;;;-0.36;92.99;99594.83;1716200;83;21205;-76
2021/01/13 02:14:43;;;;;;;6.42;2.87;;;;;;;-0.34;92.98;99599.92;1716166;83;21143;-76
2021/01/13 02:17:11;;;;;;;6.92;3.30;;;;;;;-0.36;92.98;99601.84;1716469;83;21114;-76
2021/01/13 02:20:05;;;;;;;6.22;3.12;;;;;;;-0.37;92.98;99607.55;1705305;83;21180;-77
2021/01/13 02:22:55;;;;;;;4.37;2.52;;;;;;;-0.36;92.96;99608.39;1703225;84;21148;-76
2021/01/13 02:25:47;;;;;;;6.90;3.65;;;;;;;-0.34;92.96;99613.02;1703528;84;21210;-76
2021/01/13 02:28:20;;;;;;;5.70;3.62;;;;;;;-0.31;92.93;99604.92;1695589;84;21168;-76
2021/01/13 02:31:07;;;;;;;6.08;4.40;;;;;;;-0.29;92.92;99613.50;1698928;83;21217;-77
2021/01/13 02:33:44;;;;;;;7.30;5.03;;;;;;;-0.27;92.93;99614.20;1723176;81;21149;-76
2021/01/13 02:36:21;;;;;;;8.85;3.45;;;;;;;-0.26;92.95;99608.86;1714209;82;21145;-76
2021/01/13 02:38:51;;;;;;;5.62;2.50;;;;;;;-0.27;92.92;99611.11;1726697;83;21329;-76
2021/01/13 02:41:19;;;;;;;7.55;2.83;;;;;;;-0.26;92.94;99614.09;1726367;83;21634;-76
2021/01/13 02:43:57;;;;;;;4.92;2.52;;;;;;;-0.26;92.91;99610.64;1726756;83;21233;-76
2021/01/13 02:46:58;;;;;;;8.20;2.60;;;;;;;-0.26;92.92;99615.88;1741665;82;21221;-76
2021/01/13 02:49:39;;;;;;;6.62;2.70;;;;;;;-0.30;92.92;99616.59;1741928;82;21139;-76
2021/01/13 02:52:13;;;;;;;5.37;3.12;;;;;;;-0.37;92.91;99614.10;1726617;83;21221;-76
2021/01/13 02:54:43;;;;;;;7.92;5.45;;;;;;;-0.43;92.91;99618.52;1724744;81;21162;-76
2021/01/13 02:57:28;;;;;;;8.50;6.80;;;;;;;-0.51;92.90;99619.11;1721213;83;21197;-76
2021/01/13 02:59:57;;;;;;;11.10;7.37;;;;;;;-0.59;92.89;99624.10;1719418;83;21616;-76
2021/01/13 03:02:35;;;;;;;5.25;4.40;;;;;;;-0.62;92.89;99636.13;1721393;83;21157;-76
2021/01/13 03:05:04;;;;;;;13.53;5.12;;;;;;;-0.64;92.88;99635.42;1721334;83;21323;-76
2021/01/13 03:07:37;;;;;;;8.73;3.55;;;;;;;-0.63;92.89;99643.61;1721182;83;21197;-76
2021/01/13 03:10:16;;;;;;;12.15;3.85;;;;;;;-0.61;92.87;99643.03;1721025;83;21229;-76
2021/01/13 03:12:42;;;;;;;13.18;5.55;;;;;;;-0.61;92.86;99640.42;1721303;83;21198;-76
2021/01/13 03:15:10;;;;;;;20.12;9.48;;;;;;;-0.61;92.84;99649.58;1721243;83;21166;-76
2021/01/13 03:18:01;;;;;;;11.83;5.65;;;;;;;-0.64;92.84;99649.81;1721260;83;22079;-76
2021/01/13 03:20:31;;;;;;;14.98;5.65;;;;;;;-0.63;92.85;99647.53;1720945;83;21197;-76
2021/01/13 03:23:24;;;;;;;11.73;5.62;;;;;;;-0.60;92.82;99652.53;1720825;83;21249;-76
2021/01/13 03:26:01;;;;;;;10.32;5.67;;;;;;;-0.57;92.81;99648.40;1721002;83;21138;-76
2021/01/13 03:28:40;;;;;;;12.30;4.53;;;;;;;-0.54;92.81;99646.84;1720078;82;21496;-76
2021/01/13 03:31:06;;;;;;;8.93;2.92;;;;;;;-0.54;92.81;99650.77;1714740;83;21237;-76
2021/01/13 03:34:16;;;;;;;10.00;3.25;;;;;;;-0.51;92.81;99659.70;1667321;83;21217;-76
2021/01/13 03:37:18;;;;;;;15.50;4.25;;;;;;;-0.49;92.81;99649.59;1720514;83;29153;-76
2021/01/13 03:39:45;;;;;;;7.47;3.37;;;;;;;-0.47;92.79;99658.15;1721190;83;21186;-76
2021/01/13 03:42:13;;;;;;;10.35;3.50;;;;;;;-0.47;92.79;99658.15;1721041;83;21149;-76
2021/01/13 03:44:44;;;;;;;6.80;2.50;;;;;;;-0.45;92.78;99660.16;1721141;83;21271;-76
2021/01/13 03:47:34;;;;;;;8.65;4.50;;;;;;;-0.44;92.76;99657.91;1721263;83;21153;-76
2021/01/13 03:50:24;;;;;;;14.85;5.20;;;;;;;-0.42;92.76;99657.33;1720419;83;21158;-76
2021/01/13 03:53:02;;;;;;;10.58;6.03;;;;;;;-0.40;92.77;99663.27;1720520;82;21167;-76
2021/01/13 03:55:30;;;;;;;10.63;6.22;;;;;;;-0.39;92.77;99662.33;1738231;81;21144;-76
2021/01/13 03:58:19;;;;;;;11.55;4.47;;;;;;;-0.36;92.77;99672.56;1751257;81;22077;-76
2021/01/13 04:01:07;;;;;;;9.43;3.60;;;;;;;-0.34;92.76;99664.09;1751073;81;21179;-76
2021/01/13 04:03:45;;;;;;;10.90;2.90;;;;;;;-0.32;92.76;99663.52;1749443;81;21168;-76
2021/01/13 04:06:12;;;;;;;8.95;2.62;;;;;;;-0.31;92.77;99666.00;1749610;81;21196;-76
2021/01/13 04:08:44;;;;;;;8.40;2.92;;;;;;;-0.29;92.77;99668.52;1751043;81;21143;-76
2021/01/13 04:11:22;;;;;;;10.15;3.05;;;;;;;-0.30;92.77;99664.22;1751051;81;21267;-76
2021/01/13 04:13:52;;;;;;;10.30;5.03;;;;;;;-0.26;92.78;99661.72;1751255;81;21151;-76
2021/01/13 04:16:21;;;;;;;13.70;6.70;;;;;;;-0.25;92.78;99666.02;1750619;81;21128;-76
2021/01/13 04:18:49;;;;;;;19.27;9.90;;;;;;;-0.25;92.80;99669.95;1751284;81;21196;-76
2021/01/13 04:21:19;;;;;;;17.17;5.78;;;;;;;-0.25;92.80;99677.34;1751161;81;21151;-76
2021/01/13 04:23:46;;;;;;;10.70;4.95;;;;;;;-0.24;92.82;99665.05;1750954;81;22316;-76
2021/01/13 04:26:13;;;;;;;14.35;4.90;;;;;;;-0.24;92.81;99674.21;1751025;81;21167;-76
2021/01/13 04:28:40;;;;;;;12.20;4.25;;;;;;;-0.24;92.80;99672.91;1751129;81;21132;-76
2021/01/13 04:31:07;;;;;;;8.50;3.08;;;;;;;-0.24;92.81;99673.74;1751142;81;21144;-76
2021/01/13 04:33:33;;;;;;;6.12;2.90;;;;;;;-0.25;92.82;99672.56;1750753;81;21125;-76
2021/01/13 04:36:01;;;;;;;15.25;3.77;;;;;;;-0.26;92.84;99672.20;1751155;81;21247;-76
2021/01/13 04:38:30;;;;;;;19.45;6.00;;;;;;;-0.27;92.81;99672.67;1750875;81;21195;-76
2021/01/13 04:41:18;;;;;;;15.65;5.95;;;;;;;-0.26;92.84;99676.13;1751083;81;21203;-76
2021/01/13 04:44:01;;;;;;;20.47;6.93;;;;;;;-0.26;92.83;99674.82;1751367;81;21175;-76
2021/01/13 04:46:31;;;;;;;20.25;9.10;;;;;;;-0.25;92.83;99677.34;1751000;81;21180;-76
2021/01/13 04:49:11;;;;;;;11.63;6.42;;;;;;;-0.24;92.83;99667.66;1751108;81;21272;-76
2021/01/13 04:51:43;;;;;;;10.13;4.33;;;;;;;-0.23;92.82;99666.72;1749792;81;21170;-76
2021/01/13 04:54:16;;;;;;;14.63;4.08;;;;;;;-0.21;92.83;99672.19;1750868;81;21176;-76
2021/01/13 04:57:06;;;;;;;11.38;4.35;;;;;;;-0.21;92.82;99671.38;1769270;79;21702;-76
2021/01/13 05:00:11;;;;;;;19.70;7.85;;;;;;;-0.20;92.81;99672.55;1765743;81;23252;-76
2021/01/13 05:03:14;;;;;;;21.23;7.40;;;;;;;-0.17;92.81;99676.23;1761239;80;21527;-76
2021/01/13 05:05:58;;;;;;;11.22;5.58;;;;;;;-0.13;92.82;99679.45;1642274;83;21211;-76
2021/01/13 05:08:28;;;;;;;11.38;6.08;;;;;;;-0.12;92.82;99673.27;1750982;81;21161;-76
2021/01/13 05:11:10;;;;;;;24.20;10.85;;;;;;;-0.10;92.82;99671.34;1752753;81;21200;-76
2021/01/13 05:13:38;;;;;;;10.45;5.45;;;;;;;-0.11;92.83;99669.70;1716744;83;21532;-76
2021/01/13 05:16:12;;;;;;;11.33;4.80;;;;;;;-0.10;92.82;99676.59;1716681;83;22054;-76
2021/01/13 05:18:54;;;;;;;12.00;6.50;;;;;;;-0.11;92.84;99667.92;1716824;83;21150;-76
2021/01/13 05:21:26;;;;;;;10.32;5.58;;;;;;;-0.10;92.82;99674.80;1716544;83;21139;-76
2021/01/13 05:23:55;;;;;;;16.23;4.37;;;;;;;-0.10;92.82;99676.59;1716764;83;21178;-76
2021/01/13 05:26:24;;;;;;;9.35;4.62;;;;;;;-0.13;92.82;99668.97;1716094;83;21123;-76
2021/01/13 05:29:26;;;;;;;12.82;4.67;;;;;;;-0.10;92.83;99673.50;1715672;83;21287;-76
2021/01/13 05:31:54;;;;;;;14.87;4.45;;;;;;;-0.13;92.83;99674.22;1634628;87;21234;-76
2021/01/13 05:34:20;;;;;;;14.80;6.33;;;;;;;-0.13;92.83;99674.22;1613055;87;21203;-76
2021/01/13 05:37:16;;;;;;;17.65;6.95;;;;;;;-0.12;92.83;99683.75;1663722;83;21682;-76
2021/01/13 05:39:47;;;;;;;20.68;7.33;;;;;;;-0.12;92.86;99675.89;1716746;83;21122;-76
2021/01/13 05:42:15;;;;;;;17.12;9.43;;;;;;;-0.14;92.83;99683.86;1716460;82;22171;-76
2021/01/13 05:44:42;;;;;;;14.93;7.70;;;;;;;-0.14;92.84;99683.05;1716617;83;21143;-76
2021/01/13 05:47:38;;;;;;;11.22;5.58;;;;;;;-0.13;92.83;99689.94;1716605;82;21609;-76
2021/01/13 05:50:05;;;;;;;14.80;5.83;;;;;;;-0.13;92.84;99687.31;1714948;83;21222;-76
2021/01/13 05:52:32;;;;;;;13.18;4.80;;;;;;;-0.14;92.84;99683.05;1690204;83;21143;-76
2021/01/13 05:54:59;;;;;;;21.27;7.97;;;;;;;-0.13;92.86;99680.77;1727501;82;22143;-76
2021/01/13 05:57:26;;;;;;;22.58;7.60;;;;;;;-0.13;92.84;99684.69;1772411;80;21724;-76
2021/01/13 05:59:53;;;;;;;22.30;7.05;;;;;;;-0.12;92.85;99694.23;1772167;80;21168;-76
2021/01/13 06:02:20;;;;;;;17.00;7.28;;;;;;;-0.12;92.85;99685.06;1772489;81;21140;-76
2021/01/13 06:04:47;;;;;;;23.30;8.53;;;;;;;-0.12;92.83;99685.06;1719790;83;22046;-76
2021/01/13 06:07:22;;;;;;;17.85;7.50;;;;;;;-0.11;92.85;99689.36;1719971;82;22212;-76
2021/01/13 06:09:55;;;;;;;17.85;8.70;;;;;;;-0.10;92.84;99691.84;1719619;83;21175;-76
2021/01/13 06:12:22;;;;;;;12.05;4.65;;;;;;;-0.12;92.85;99683.75;1719710;82;21192;-76
2021/01/13 06:14:53;;;;;;;19.20;6.40;;;;;;;-0.12;92.85;99685.06;1719753;83;21124;-76
2021/01/13 06:17:21;;;;;;;15.13;5.08;;;;;;;-0.13;92.86;99687.31;1719822;83;21129;-76
2021/01/13 06:19:51;;;;;;;16.75;5.65;;;;;;;-0.15;92.86;99675.66;1719897;83;21204;-76
2021/01/13 06:22:18;;;;;;;9.95;3.70;;;;;;;-0.16;92.88;99679.70;1719408;83;21188;-77
2021/01/13 06:24:46;;;;;;;14.70;6.17;;;;;;;-0.17;92.89;99680.64;1719774;83;21586;-76
2021/01/13 06:27:18;;;;;;;13.38;5.65;;;;;;;-0.19;92.86;99682.56;1719770;83;21208;-76
2021/01/13 06:29:52;;;;;;;11.88;5.58;;;;;;;-0.20;92.88;99689.58;1719809;82;21132;-77
2021/01/13 06:32:34;;;;;;;15.60;7.15;;;;;;;-0.21;92.88;99679.24;1719820;82;21209;-76
2021/01/13 06:35:35;;;;;;;17.27;6.97;;;;;;;-0.21;92.88;99677.93;1690736;83;21152;-77
2021/01/13 06:38:01;;;;;;;12.18;6.40;;;;;;;-0.22;92.88;99685.42;1719730;83;21594;-77
2021/01/13 06:40:27;;;;;;;10.78;5.12;;;;;;;-0.22;92.89;99682.80;1716774;82;21207;-76
2021/01/13 06:42:54;;;;;;;9.30;3.40;;;;;;;-0.23;92.89;99686.37;1708250;82;21224;-76
2021/01/13 06:45:31;;;;;;;7.97;3.95;;;;;;;-0.22;92.88;99686.27;1705307;83;21287;-76
2021/01/13 06:47:58;;;;;;;54.23;25.50;;;;;;;-0.22;92.89;99691.50;1703723;83;21188;-76
2021/01/13 06:50:40;;;;;;;19.50;8.48;;;;;;;-0.21;92.88;99686.59;1690909;83;21180;-76
2021/01/13 06:53:09;;;;;;;13.75;5.78;;;;;;;-0.20;92.90;99691.36;1690742;84;21620;-76
2021/01/13 06:55:37;;;;;;;10.60;5.50;;;;;;;-0.19;92.92;99693.04;1692500;83;21227;-76
2021/01/13 06:58:19;;;;;;;20.55;8.70;;;;;;;-0.21;92.91;99698.39;1724487;83;21272;-76
2021/01/13 07:00:47;;;;;;;16.65;6.20;;;;;;;-0.20;92.92;99699.23;1718584;83;21172;-76
2021/01/13 07:03:31;;;;;;;11.55;5.53;;;;;;;-0.21;92.91;99703.63;1785774;79;21187;-76
2021/01/13 07:06:09;;;;;;;8.13;4.10;;;;;;;-0.21;92.92;99704.13;1771477;79;21144;-76
2021/01/13 07:08:35;;;;;;;11.50;4.20;;;;;;;-0.20;92.94;99706.61;1763070;79;21168;-77
2021/01/13 07:11:09;;;;;;;9.10;3.60;;;;;;;-0.20;92.94;99716.25;1778971;80;21617;-76
2021/01/13 07:13:40;;;;;;;7.30;3.15;;;;;;;-0.19;92.95;99716.63;1750639;80;21187;-77
2021/01/13 07:16:08;;;;;;;11.50;3.62;;;;;;;-0.17;92.94;99718.63;1748801;82;21187;-76
2021/01/13 07:18:35;;;;;;;16.52;7.75;;;;;;;-0.16;92.94;99722.92;1748369;82;21641;-76
2021/01/13 07:21:07;;;;;;;14.35;5.17;;;;;;;-0.14;92.95;99723.66;1719402;81;22276;-76
2021/01/13 07:23:33;;;;;;;16.70;7.62;;;;;;;-0.16;92.96;99719.00;1748545;82;21167;-76
2021/01/13 07:26:00;;;;;;;12.40;7.95;;;;;;;-0.16;92.94;99726.86;1751297;80;21807;-76
2021/01/13 07:28:26;;;;;;;23.15;12.80;;;;;;;-0.15;92.96;99725.91;1748814;81;21283;-76
2021/01/13 07:30:53;;;;;;;14.78;7.22;;;;;;;-0.14;92.96;99724.97;1719050;81;21156;-76
2021/01/13 07:33:20;;;;;;;15.78;6.65;;;;;;;-0.16;92.96;99729.48;1753278;80;21157;-76
2021/01/13 07:35:48;;;;;;;16.65;6.62;;;;;;;-0.13;92.95;99731.38;1753200;80;21201;-76
2021/01/13 07:38:19;;;;;;;16.02;7.75;;;;;;;-0.14;92.97;99738.08;1690645;84;21251;-76
2021/01/13 07:41:04;;;;;;;21.33;8.45;;;;;;;-0.14;92.96;99744.63;1753573;80;21609;-77
2021/01/13 07:44:14;;;;;;;28.70;12.30;;;;;;;-0.12;92.98;99744.02;1706010;81;21160;-76
2021/01/13 07:46:46;;;;;;;24.65;10.45;;;;;;;-0.12;92.98;99751.88;1689925;84;21158;-76
2021/01/13 07:49:24;;;;;;;20.40;10.43;;;;;;;-0.07;92.99;99744.51;1814929;77;22753;-76
2021/01/13 07:51:54;;;;;;;28.98;15.03;;;;;;;-0.11;92.98;99750.94;1756666;81;21188;-76
2021/01/13 07:54:30;;;;;;;36.88;18.27;;;;;;;-0.09;92.97;99755.56;1772157;80;21186;-77
2021/01/13 07:56:59;;;;;;;24.40;11.38;;;;;;;-0.10;92.98;99753.89;1785392;80;21182;-77
2021/01/13 07:59:37;;;;;;;14.60;7.28;;;;;;;-0.10;92.99;99753.42;1740119;80;21155;-77
2021/01/13 08:02:49;;;;;;;18.73;8.63;;;;;;;-0.08;93.01;99750.22;1760963;80;21131;-77
2021/01/13 08:05:47;;;;;;;15.00;7.12;;;;;;;-0.04;93.01;99759.98;1714258;83;21258;-77
2021/01/13 08:08:13;;;;;;;15.35;5.08;;;;;;;-0.01;93.00;99762.37;1781351;80;21239;-77
2021/01/13 08:10:40;;;;;;;14.87;6.80;;;;;;;0.00;93.01;99754.88;1756489;81;21163;-77
2021/01/13 08:13:36;;;;;;;14.53;7.08;;;;;;;0.03;93.01;99757.72;1756782;81;21164;-77
2021/01/13 08:16:46;;;;;;;22.20;9.63;;;;;;;0.07;93.01;99759.97;1753100;81;21230;-77
2021/01/13 08:20:02;;;;;;;26.37;12.93;;;;;;;0.11;93.01;99767.95;1727448;81;21174;-77
2021/01/13 08:22:29;;;;;;;42.05;15.80;;;;;;;0.14;93.02;99769.02;1730488;81;21208;-77
2021/01/13 08:25:08;;;;;;;32.40;13.72;;;;;;;0.15;93.02;99770.70;1753321;81;21191;-77
2021/01/13 08:27:31;;;;;;;31.30;12.07;;;;;;;0.15;93.04;99773.31;1717597;81;21147;-76
2021/01/13 08:29:58;;;;;;;34.25;12.63;;;;;;;0.15;93.04;99772.01;1755031;81;21186;-76
2021/01/13 08:32:40;;;;;;;33.42;15.05;;;;;;;0.17;93.02;99767.97;1756079;81;22714;-76
2021/01/13 08:35:08;;;;;;;34.83;12.98;;;;;;;0.18;93.02;99769.61;1756328;81;21210;-76
2021/01/13 08:37:36;;;;;;;94.17;44.35;;;;;;;0.18;93.02;99765.21;1740454;81;21643;-76
2021/01/13 08:40:26;;;;;;;44.00;20.25;;;;;;;0.17;93.03;99777.14;1742962;80;21199;-77
2021/01/13 08:45:53;;;;;;;48.40;20.00;;;;;;;0.29;93.03;99774.86;1815673;77;22708;-77
2021/01/13 08:48:23;;;;;;;38.85;18.65;;;;;;;0.28;93.02;99776.64;1783216;80;21020;-77
2021/01/13 08:51:10;;;;;;;37.60;17.20;;;;;;;0.30;93.02;99779.16;1761696;80;21154;-77
2021/01/13 08:53:37;;;;;;;34.43;16.23;;;;;;;0.29;93.02;99782.72;1756679;81;21143;-77
2021/01/13 08:56:05;;;;;;;37.25;16.57;;;;;;;0.27;93.03;99772.37;1767169;80;21171;-77
2021/01/13 08:58:33;;;;;;;25.90;10.35;;;;;;;0.27;93.03;99782.86;1787356;80;21883;-77
2021/01/13 09:01:10;;;;;;;27.87;12.88;;;;;;;0.26;93.05;99775.94;1785760;80;21139;-77
2021/01/13 09:03:38;;;;;;;30.82;11.80;;;;;;;0.28;93.02;99785.82;1787436;80;21804;-77
2021/01/13 09:06:21;;;;;;;48.95;16.85;;;;;;;0.28;93.02;99783.70;1762868;80;21065;-77
2021/01/13 09:08:54;;;;;;;58.48;17.25;;;;;;;0.30;93.01;99791.80;1757396;80;21627;-77
2021/01/13 09:11:36;;;;;;;29.50;11.00;;;;;;;0.33;93.03;99782.38;1761115;80;21111;-77
2021/01/13 09:14:23;;;;;;;75.97;25.05;;;;;;;0.35;93.02;99780.45;1758861;80;21160;-77
2021/01/13 09:16:55;;;;;;;34.63;14.58;;;;;;;0.36;93.02;99790.00;1773405;79;21200;-77
2021/01/13 09:19:37;;;;;;;41.30;16.05;;;;;;;0.41;93.01;99792.27;1765083;80;21163;-77
2021/01/13 09:22:13;;;;;;;37.78;12.88;;;;;;;0.38;93.03;99794.66;1775576;80;21506;-77
2021/01/13 09:24:41;;;;;;;25.92;10.10;;;;;;;0.35;93.04;99787.00;1785267;80;21559;-76
2021/01/13 09:27:09;;;;;;;28.70;12.93;;;;;;;0.32;93.05;99788.56;1780151;78;21150;-77
2021/01/13 09:29:53;;;;;;;42.17;16.17;;;;;;;0.33;93.03;99790.23;1775352;80;21196;-77
2021/01/13 09:32:23;;;;;;;39.55;14.90;;;;;;;0.35;93.05;99787.52;1776769;79;21212;-77
2021/01/13 09:34:51;;;;;;;24.57;9.35;;;;;;;0.40;93.06;99784.88;1777392;80;21128;-77
2021/01/13 09:37:19;;;;;;;23.25;8.03;;;;;;;0.45;93.06;99781.42;1775466;78;21694;-77
2021/01/13 09:40:02;;;;;;;19.98;8.93;;;;;;;0.47;93.05;99778.19;1771414;80;21709;-77
2021/01/13 09:42:39;;;;;;;19.37;10.10;;;;;;;0.50;93.06;99780.56;1777581;80;21198;-77
2021/01/13 09:45:08;;;;;;;21.82;11.40;;;;;;;0.54;93.04;99784.25;1777806;80;21204;-77
2021/01/13 09:47:35;;;;;;;15.55;6.42;;;;;;;0.56;93.06;99782.36;1773811;80;21178;-76
2021/01/13 09:50:04;;;;;;;17.60;9.30;;;;;;;0.59;93.08;99784.73;1778145;80;21226;-76
2021/01/13 09:55:22;;;;;;;15.00;6.58;;;;;;;0.62;93.07;99776.61;1796890;77;22767;-76
2021/01/13 09:57:49;;;;;;;15.13;6.08;;;;;;;0.58;93.06;99769.47;1781861;79;21132;-76
2021/01/13 10:00:16;;;;;;;21.85;9.23;;;;;;;0.62;93.06;99771.37;1733069;81;21264;-76
2021/01/13 10:02:48;;;;;;;28.70;8.58;;;;;;;0.66;93.07;99768.86;1778843;79;21690;-77
2021/01/13 10:05:15;;;;;;;11.80;6.22;;;;;;;0.69;93.08;99764.20;1744143;81;21710;-76
2021/01/13 10:07:44;;;;;;;19.50;7.47;;;;;;;0.71;93.06;99762.75;1771621;79;21186;-76
2021/01/13 10:10:11;;;;;;;27.07;9.73;;;;;;;0.74;93.05;99758.59;1735824;81;21152;-76
2021/01/13 10:12:42;;;;;;;33.05;15.58;;;;;;;0.77;93.06;99759.66;1756339;81;21253;-76
2021/01/13 10:15:12;;;;;;;20.30;9.20;;;;;;;0.79;93.06;99760.35;1758523;79;21672;-76
2021/01/13 10:17:39;;;;;;;16.30;7.97;;;;;;;0.89;93.06;99762.58;1758638;80;21153;-76
2021/01/13 10:20:27;;;;;;;17.32;7.83;;;;;;;0.96;93.06;99757.19;1762213;80;21184;-76
2021/01/13 10:22:54;;;;;;;23.18;10.35;;;;;;;1.00;93.06;99753.36;1763750;80;21200;-75
2021/01/13 10:25:30;;;;;;;15.20;6.87;;;;;;;1.04;93.07;99752.16;1762795;80;21202;-76
2021/01/13 10:27:57;;;;;;;17.37;6.50;;;;;;;1.13;93.04;99754.02;1758410;80;21148;-76
2021/01/13 10:30:25;;;;;;;12.60;6.58;;;;;;;1.15;93.05;99754.73;1755870;81;21679;-76
2021/01/13 10:32:53;;;;;;;26.45;13.75;;;;;;;1.07;93.04;99751.91;1754134;81;21215;-75
2021/01/13 10:35:21;;;;;;;20.10;13.13;;;;;;;0.99;93.02;99756.94;1737332;81;21171;-75
2021/01/13 10:37:56;;;;;;;27.85;13.80;;;;;;;0.93;93.02;99760.06;1771110;80;21224;-75
2021/01/13 10:40:25;;;;;;;21.45;8.20;;;;;;;0.88;93.01;99758.31;1771881;80;21183;-75
2021/01/13 10:42:54;;;;;;;19.60;8.50;;;;;;;0.83;92.99;99748.66;1732045;81;22311;-75
2021/01/13 10:45:22;;;;;;;13.65;6.55;;;;;;;0.80;92.96;99750.22;1768477;80;21116;-76
2021/01/13 10:47:59;;;;;;;14.90;6.83;;;;;;;0.77;92.94;99746.53;1758607;80;21695;-76
2021/01/13 10:50:29;;;;;;;16.02;6.20;;;;;;;0.75;92.92;99748.43;1759849;80;22679;-75
2021/01/13 10:52:58;;;;;;;16.67;7.28;;;;;;;0.75;92.92;99745.80;1768889;80;21160;-76
2021/01/13 10:55:27;;;;;;;21.55;9.85;;;;;;;0.74;92.90;99746.78;1761923;80;21190;-75
2021/01/13 10:57:55;;;;;;;28.02;12.68;;;;;;;0.73;92.90;99740.70;1764425;80;21179;-75
2021/01/13 11:00:25;;;;;;;21.85;10.08;;;;;;;0.73;92.87;99741.17;1756514;81;21148;-75
2021/01/13 11:02:58;;;;;;;29.20;11.80;;;;;;;0.71;92.85;99733.88;1756848;81;21308;-75
2021/01/13 11:05:25;;;;;;;22.58;13.20;;;;;;;0.72;92.84;99736.88;1780160;80;21152;-75
2021/01/13 11:07:59;;;;;;;19.70;10.15;;;;;;;0.72;92.83;99736.88;1787289;80;21227;-75
2021/01/13 11:10:25;;;;;;;27.70;11.80;;;;;;;0.70;92.82;99732.24;1777633;80;21590;-76
2021/01/13 11:15:46;;;;;;;26.52;10.93;;;;;;;0.81;92.81;99720.41;1825555;77;22682;-76
2021/01/13 11:18:13;;;;;;;34.23;12.28;;;;;;;0.78;92.79;99725.40;1769755;80;21152;-75
2021/01/13 11:20:39;;;;;;;32.40;9.20;;;;;;;0.84;92.78;99730.65;1765293;80;21342;-76
2021/01/13 11:23:07;;;;;;;37.63;13.48;;;;;;;0.82;92.77;99732.07;1771082;80;21207;-75
2021/01/13 11:25:36;;;;;;;29.20;11.93;;;;;;;0.82;92.76;99725.98;1772907;80;21203;-75
2021/01/13 11:28:09;;;;;;;41.98;14.25;;;;;;;0.81;92.75;99721.71;1765371;80;26100;-75
2021/01/13 11:30:38;;;;;;;52.27;18.67;;;;;;;0.80;92.74;99722.66;1775596;80;21159;-76
2021/01/13 11:33:08;;;;;;;47.98;18.60;;;;;;;0.82;92.74;99724.67;1782486;80;21624;-76
2021/01/13 11:35:37;;;;;;;37.50;14.90;;;;;;;0.88;92.72;99722.38;1755583;81;21211;-76
2021/01/13 11:38:29;;;;;;;23.55;9.88;;;;;;;0.92;92.69;99714.61;1768469;80;21582;-76
2021/01/13 11:41:22;;;;;;;30.10;12.15;;;;;;;0.95;92.69;99718.80;1755962;81;21152;-75
2021/01/13 11:44:16;;;;;;;24.60;8.65;;;;;;;0.94;92.70;99709.25;1746121;78;21200;-75
2021/01/13 11:46:46;;;;;;;21.35;7.95;;;;;;;0.96;92.69;99704.69;1714030;81;22084;-75
2021/01/13 11:49:36;;;;;;;21.82;8.85;;;;;;;0.98;92.68;99701.48;1679625;84;21212;-76
2021/01/13 11:52:07;;;;;;;22.55;8.45;;;;;;;0.97;92.70;99701.95;1659938;85;21667;-75
2021/01/13 11:54:32;;;;;;;26.65;9.38;;;;;;;0.95;92.69;99703.05;1680083;84;21208;-75
2021/01/13 11:57:22;;;;;;;22.37;8.98;;;;;;;0.98;92.71;99700.17;1680735;83;21183;-75
2021/01/13 11:59:50;;;;;;;27.27;11.80;;;;;;;0.98;92.68;99692.29;1674480;84;21349;-75
2021/01/13 12:02:27;;;;;;;21.17;10.03;;;;;;;0.99;92.65;99684.75;1675937;84;21210;-75
2021/01/13 12:04:53;;;;;;;22.15;7.17;;;;;;;1.01;92.67;99686.78;1676856;85;21208;-75
2021/01/13 12:07:20;;;;;;;26.27;8.73;;;;;;;1.03;92.67;99683.54;1677066;84;21701;-75